Time;durP1;ratioP1;P1;durP2;ratioP2;P2;SDS_P1;SDS_P2;PMS_P1;PMS_P2;Temp;Humidity;BMP_temperature;BMP_pressure;BME280_temperature;BME280_humidity;BME280_pressure;Samples;Min_cycle;Max_cycle;Signal;HPM_P1;HPM_P2
2022/01/24 00:01:45;;;;;;;10.52;5.68;;;6.00;99.90;;;;;;4961838;28;20070;-68
2022/01/24 00:04:11;;;;;;;9.30;5.38;;;6.00;99.90;;;;;;4963204;28;20038;-68
2022/01/24 00:06:37;;;;;;;11.00;5.57;;;5.90;99.90;;;;;;4957471;28;20444;-68
2022/01/24 00:09:04;;;;;;;10.82;5.90;;;5.90;99.90;;;;;;4965488;28;20046;-68
2022/01/24 00:11:42;;;;;;;8.95;5.25;;;5.90;99.90;;;;;;4966848;28;20074;-67
2022/01/24 00:14:49;;;;;;;9.45;5.40;;;5.90;99.90;;;;;;4962024;28;20113;-68
2022/01/24 00:17:10;;;;;;;7.50;4.85;;;5.90;99.90;;;;;;4962545;28;20047;-66
2022/01/24 00:27:50;;;;;;;9.13;5.55;;;5.90;99.90;;;;;;4966105;28;20051;-66
2022/01/24 00:30:17;;;;;;;8.93;5.45;;;5.90;99.90;;;;;;4972301;28;20045;-66
2022/01/24 00:32:43;;;;;;;9.23;5.05;;;5.80;99.90;;;;;;4967897;28;20045;-66
2022/01/24 00:35:09;;;;;;;8.00;5.00;;;5.90;99.90;;;;;;4967207;28;20039;-66
2022/01/24 00:37:35;;;;;;;8.35;4.88;;;5.90;99.90;;;;;;4963560;28;20053;-67
2022/01/24 00:40:02;;;;;;;7.33;4.77;;;5.90;99.90;;;;;;4973805;28;20039;-67
2022/01/24 00:42:34;;;;;;;10.02;4.88;;;5.80;99.90;;;;;;4969964;28;20038;-68
2022/01/24 00:45:10;;;;;;;7.25;4.55;;;5.80;99.90;;;;;;4965070;28;20073;-68
2022/01/24 00:48:09;;;;;;;7.35;4.47;;;5.80;99.90;;;;;;4968109;28;20043;-68
2022/01/24 00:56:05;;;;;;;8.18;4.40;;;5.80;99.90;;;;;;4971051;28;20464;-66
2022/01/24 00:58:30;;;;;;;6.68;3.85;;;5.80;99.90;;;;;;4962582;28;20346;-68
2022/01/24 01:00:56;;;;;;;8.97;4.53;;;5.80;99.90;;;;;;4969867;28;20122;-67
2022/01/24 01:03:24;;;;;;;8.40;4.37;;;5.80;99.90;;;;;;4970076;28;20473;-67
2022/01/24 01:06:07;;;;;;;7.57;4.72;;;5.70;99.90;;;;;;4967346;28;20046;-68
2022/01/24 01:19:41;;;;;;;8.98;4.30;;;5.70;99.90;;;;;;4959572;28;20122;-68
2022/01/24 01:22:07;;;;;;;10.03;4.43;;;5.70;99.90;;;;;;4963170;28;20313;-69
2022/01/24 01:24:41;;;;;;;8.20;4.07;;;5.70;99.90;;;;;;4966086;28;20046;-69
2022/01/24 01:27:18;;;;;;;9.65;5.10;;;5.70;99.90;;;;;;4960406;28;20133;-69
2022/01/24 01:29:57;;;;;;;7.38;4.28;;;5.70;99.90;;;;;;4964613;28;20050;-69
2022/01/24 01:32:41;;;;;;;6.88;4.20;;;5.70;99.90;;;;;;4965113;28;20111;-69
2022/01/24 01:54:01;;;;;;;8.65;4.05;;;5.60;99.90;;;;;;4971784;28;20144;-67
2022/01/24 01:56:26;;;;;;;5.68;3.13;;;5.60;99.90;;;;;;4961481;28;20062;-66
2022/01/24 01:58:52;;;;;;;6.37;3.80;;;5.60;99.90;;;;;;4965352;28;20444;-67
2022/01/24 02:01:18;;;;;;;5.30;3.37;;;5.60;99.90;;;;;;4966508;28;20066;-67
2022/01/24 02:03:44;;;;;;;7.83;4.40;;;5.60;99.90;;;;;;4964795;28;20038;-67
2022/01/24 02:06:13;;;;;;;8.27;3.88;;;5.60;99.90;;;;;;4968821;28;20184;-67
2022/01/24 02:08:41;;;;;;;5.90;3.25;;;5.60;99.90;;;;;;4965514;28;20035;-67
2022/01/24 02:11:09;;;;;;;5.95;3.75;;;5.60;99.90;;;;;;4966078;28;20522;-67
2022/01/24 02:13:35;;;;;;;7.85;4.20;;;5.60;99.90;;;;;;4964387;28;20070;-67
2022/01/24 02:18:42;;;;;;;9.10;4.15;;;5.60;99.90;;;;;;4965322;28;20129;-67
2022/01/24 02:21:27;;;;;;;6.18;4.03;;;5.60;99.90;;;;;;4968734;28;20097;-67
2022/01/24 02:23:57;;;;;;;7.13;4.03;;;5.60;99.90;;;;;;4964357;28;20046;-67
2022/01/24 02:26:23;;;;;;;8.10;3.78;;;5.60;99.90;;;;;;4958637;28;20097;-66
2022/01/24 02:29:01;;;;;;;7.03;4.23;;;5.60;99.90;;;;;;4963411;28;20115;-66
2022/01/24 02:31:41;;;;;;;7.82;4.07;;;5.60;99.90;;;;;;4961656;28;20110;-66
2022/01/24 02:34:40;;;;;;;5.50;3.60;;;5.50;99.90;;;;;;4966046;28;20351;-66
2022/01/24 02:37:07;;;;;;;;;;;5.50;99.90;;;;;;4954511;28;20537;-67
2022/01/24 02:53:33;;;;;;;7.13;3.65;;;5.50;99.90;;;;;;4966327;28;20050;-68
2022/01/24 02:55:58;;;;;;;8.52;4.90;;;5.50;99.90;;;;;;4967307;28;20096;-67
2022/01/24 02:58:24;;;;;;;8.83;4.77;;;5.50;99.90;;;;;;4962694;28;20039;-67
2022/01/24 03:00:51;;;;;;;8.50;5.10;;;5.50;99.90;;;;;;4968779;28;20193;-67
2022/01/24 03:03:17;;;;;;;8.35;4.75;;;5.50;99.90;;;;;;4999177;23;20038;-83
2022/01/24 03:05:56;;;;;;;8.40;4.47;;;5.50;99.90;;;;;;4981541;28;20042;-82
2022/01/24 03:08:26;;;;;;;7.07;4.00;;;5.50;99.90;;;;;;5007528;28;20496;-83
2022/01/24 03:11:49;;;;;;;7.65;4.35;;;5.60;99.90;;;;;;5005360;28;20174;-84
2022/01/24 03:14:15;;;;;;;8.30;4.72;;;5.50;99.90;;;;;;4998039;28;20488;-83
2022/01/24 03:17:02;;;;;;;8.33;4.90;;;5.50;99.90;;;;;;4984373;28;20126;-83
2022/01/24 03:19:38;;;;;;;7.80;4.53;;;5.50;99.90;;;;;;4991824;28;20496;-83
2022/01/24 03:22:39;;;;;;;10.23;4.70;;;5.50;99.90;;;;;;4998122;28;20174;-83
2022/01/24 03:25:07;;;;;;;8.55;4.65;;;5.50;99.90;;;;;;4992247;28;20412;-84
2022/01/24 03:27:39;;;;;;;10.05;4.82;;;5.50;99.90;;;;;;4986840;28;20046;-83
2022/01/24 03:30:06;;;;;;;10.30;5.35;;;5.50;99.90;;;;;;4997665;28;20126;-83
2022/01/24 03:32:31;;;;;;;8.95;4.65;;;5.50;99.90;;;;;;4988174;28;20034;-84
2022/01/24 03:34:57;;;;;;;8.97;5.53;;;5.50;99.90;;;;;;4989647;28;20057;-83
2022/01/24 03:37:43;;;;;;;13.60;5.93;;;5.50;99.90;;;;;;4985673;28;20117;-83
2022/01/24 03:40:09;;;;;;;9.07;5.32;;;5.50;99.90;;;;;;4993277;28;20068;-82
2022/01/24 03:42:37;;;;;;;11.80;5.18;;;5.50;99.90;;;;;;4974574;28;20046;-83
2022/01/24 03:45:07;;;;;;;8.80;4.95;;;5.40;99.90;;;;;;4996757;28;20500;-83
2022/01/24 03:50:05;;;;;;;10.45;5.32;;;5.40;99.90;;;;;;4988398;28;20412;-83
2022/01/24 03:52:31;;;;;;;10.75;6.03;;;5.40;99.90;;;;;;4991226;28;20740;-83
2022/01/24 03:54:58;;;;;;;9.90;5.83;;;5.40;99.90;;;;;;4974248;28;20038;-83
2022/01/24 03:57:24;;;;;;;9.35;5.50;;;5.50;99.90;;;;;;4985103;28;20053;-82
2022/01/24 03:59:50;;;;;;;10.23;5.00;;;5.50;99.90;;;;;;4995384;28;20386;-83
2022/01/24 04:02:18;;;;;;;9.73;5.40;;;5.50;99.90;;;;;;4991332;28;20034;-82
2022/01/24 04:04:47;;;;;;;9.23;5.10;;;5.50;99.90;;;;;;4987456;28;20051;-83
2022/01/24 04:07:17;;;;;;;10.10;5.28;;;5.40;99.90;;;;;;4978047;28;20497;-84
2022/01/24 04:09:43;;;;;;;9.82;6.05;;;5.40;99.90;;;;;;4992636;28;20429;-83
2022/01/24 04:12:10;;;;;;;12.57;5.68;;;5.40;99.90;;;;;;4986004;28;20049;-83
2022/01/24 04:22:00;;;;;;;11.52;6.53;;;5.40;99.90;;;;;;4983468;28;20042;-81
2022/01/24 04:24:26;;;;;;;10.93;6.07;;;5.40;99.90;;;;;;4973305;28;20400;-83
2022/01/24 04:26:52;;;;;;;10.02;5.82;;;5.40;99.90;;;;;;4989469;28;20407;-83
2022/01/24 04:29:20;;;;;;;8.90;5.50;;;5.40;99.90;;;;;;4991040;28;20217;-83
2022/01/24 04:31:46;;;;;;;11.90;5.85;;;5.40;99.90;;;;;;4972795;28;20050;-84
2022/01/24 04:34:11;;;;;;;12.53;6.63;;;5.40;99.90;;;;;;4986492;28;20290;-81
2022/01/24 04:36:37;;;;;;;10.93;6.07;;;5.40;99.90;;;;;;4992538;28;20044;-83
2022/01/24 04:39:04;;;;;;;10.17;5.67;;;5.40;99.90;;;;;;4989598;28;20100;-83
2022/01/24 04:41:35;;;;;;;12.45;5.75;;;5.40;99.90;;;;;;4976448;28;20520;-83
2022/01/24 04:46:50;;;;;;;11.88;6.30;;;5.40;99.90;;;;;;4984918;28;20046;-83
2022/01/24 04:52:24;;;;;;;8.77;5.43;;;5.40;99.90;;;;;;4988242;28;20050;-82
2022/01/24 04:54:51;;;;;;;12.43;6.78;;;5.40;99.90;;;;;;4987671;28;20065;-83
2022/01/24 04:57:22;;;;;;;11.60;5.88;;;5.40;99.90;;;;;;4987874;28;20050;-82
2022/01/24 04:59:50;;;;;;;12.48;6.38;;;5.40;99.90;;;;;;4972217;28;20042;-83
2022/01/24 05:02:20;;;;;;;11.45;5.32;;;5.40;99.90;;;;;;4984592;28;20074;-84
2022/01/24 05:04:47;;;;;;;11.45;6.43;;;5.40;99.90;;;;;;5003882;28;20230;-84
2022/01/24 05:07:13;;;;;;;;;;;5.40;99.90;;;;;;4993231;28;20092;-83
2022/01/24 05:09:59;;;;;;;9.95;5.40;;;5.40;99.90;;;;;;4982462;28;19925;-84
2022/01/24 05:25:57;;;;;;;10.77;6.00;;;5.40;99.90;;;;;;4989670;28;20054;-82
2022/01/24 05:28:23;;;;;;;13.32;6.40;;;5.40;99.90;;;;;;4988747;28;20076;-83
2022/01/24 05:30:49;;;;;;;11.43;6.40;;;5.40;99.90;;;;;;4988293;28;20066;-83
2022/01/24 05:33:17;;;;;;;11.77;6.57;;;5.40;99.90;;;;;;4984667;28;20061;-83
2022/01/24 05:35:42;;;;;;;12.43;6.50;;;5.40;99.90;;;;;;4988837;28;20093;-83
2022/01/24 05:38:10;;;;;;;11.53;5.23;;;5.40;99.90;;;;;;4972341;28;20110;-83
2022/01/24 05:40:36;;;;;;;10.35;6.05;;;5.40;99.90;;;;;;4989341;28;20053;-83
2022/01/24 05:43:07;;;;;;;12.18;6.05;;;5.30;99.90;;;;;;4978911;28;20042;-83
2022/01/24 05:45:33;;;;;;;10.70;5.18;;;5.30;99.90;;;;;;4991573;28;20165;-83
2022/01/24 05:47:59;;;;;;;13.23;6.05;;;5.30;99.90;;;;;;4994142;28;20050;-83
2022/01/24 05:50:25;;;;;;;13.07;6.03;;;5.40;99.90;;;;;;4986337;28;20044;-84
2022/01/24 05:52:50;;;;;;;11.17;6.00;;;5.30;99.90;;;;;;4973568;28;20058;-83
2022/01/24 05:55:16;;;;;;;10.83;6.00;;;5.30;99.90;;;;;;4989851;28;20042;-84
2022/01/24 05:57:42;;;;;;;13.83;5.60;;;5.30;99.90;;;;;;4989818;28;20457;-83
2022/01/24 06:00:11;;;;;;;18.48;6.32;;;5.30;99.90;;;;;;4989194;28;20076;-84
2022/01/24 06:02:36;;;;;;;13.15;6.70;;;5.30;99.90;;;;;;4986204;28;20042;-83
2022/01/24 06:05:02;;;;;;;11.20;6.00;;;5.30;99.90;;;;;;4986786;28;20046;-83
2022/01/24 06:07:28;;;;;;;12.52;6.32;;;5.30;99.90;;;;;;4986236;28;20073;-83
2022/01/24 06:09:53;;;;;;;11.77;7.03;;;5.30;99.90;;;;;;4989173;28;20050;-83
2022/01/24 06:12:19;;;;;;;12.97;7.07;;;5.30;99.90;;;;;;4986725;28;20061;-83
2022/01/24 06:14:45;;;;;;;11.33;6.70;;;5.30;99.90;;;;;;4977546;28;20097;-82
2022/01/24 06:17:11;;;;;;;14.40;7.28;;;5.30;99.90;;;;;;4978296;28;20049;-84
2022/01/24 06:19:37;;;;;;;11.33;5.93;;;5.30;99.90;;;;;;4990929;28;20034;-82
2022/01/24 06:22:03;;;;;;;10.97;6.03;;;5.30;99.90;;;;;;4991723;28;20097;-83
2022/01/24 06:24:28;;;;;;;11.65;6.40;;;5.30;99.90;;;;;;4984715;28;20877;-84
2022/01/24 06:26:54;;;;;;;10.87;6.40;;;5.30;99.90;;;;;;4978568;28;20092;-84
2022/01/24 06:29:22;;;;;;;12.20;6.80;;;5.30;99.90;;;;;;4992179;28;20216;-83
2022/01/24 06:31:48;;;;;;;12.20;7.03;;;5.30;99.90;;;;;;4991053;28;20124;-83
2022/01/24 06:34:13;;;;;;;13.20;7.10;;;5.30;99.90;;;;;;4981090;28;20172;-83
2022/01/24 06:36:41;;;;;;;11.37;6.17;;;5.20;99.90;;;;;;4992824;28;20189;-83
2022/01/24 06:39:11;;;;;;;11.93;6.53;;;5.30;99.90;;;;;;4984557;28;20031;-83
2022/01/24 06:41:37;;;;;;;12.90;7.28;;;5.30;99.90;;;;;;4989829;28;20042;-81
2022/01/24 06:44:03;;;;;;;12.63;6.67;;;5.20;99.90;;;;;;4994652;28;20038;-83
2022/01/24 06:46:29;;;;;;;12.07;6.60;;;5.30;99.90;;;;;;4989159;28;20038;-82
2022/01/24 06:48:54;;;;;;;14.33;6.80;;;5.30;99.90;;;;;;4987412;28;20050;-84
2022/01/24 06:51:21;;;;;;;12.60;7.73;;;5.30;99.90;;;;;;4991062;28;20408;-83
2022/01/24 06:53:48;;;;;;;13.57;6.93;;;5.30;99.90;;;;;;4993224;28;20034;-83
2022/01/24 06:56:17;;;;;;;16.35;8.38;;;5.30;99.90;;;;;;4990231;28;20050;-82
2022/01/24 06:58:45;;;;;;;14.02;7.32;;;5.30;99.90;;;;;;4991392;28;20583;-83
2022/01/24 07:01:11;;;;;;;12.65;6.47;;;5.30;99.90;;;;;;4972333;28;20049;-84
2022/01/24 07:03:37;;;;;;;11.23;6.67;;;5.20;99.90;;;;;;4977872;28;20046;-83
2022/01/24 07:06:03;;;;;;;14.03;6.87;;;5.30;99.90;;;;;;4989984;28;20463;-82
2022/01/24 07:08:29;;;;;;;12.15;6.32;;;5.40;99.90;;;;;;4975594;28;20377;-83
2022/01/24 07:10:56;;;;;;;12.87;6.63;;;5.30;99.90;;;;;;4992464;28;20038;-83
2022/01/24 07:13:22;;;;;;;13.05;7.03;;;5.30;99.90;;;;;;4996569;28;20289;-83
2022/01/24 07:16:01;;;;;;;14.30;7.40;;;5.30;99.90;;;;;;4993069;28;20377;-82
2022/01/24 07:20:52;;;;;;;14.17;7.73;;;5.30;99.90;;;;;;4992538;28;20054;-83
2022/01/24 07:23:18;;;;;;;14.83;8.23;;;5.30;99.90;;;;;;4996230;28;20053;-83
2022/01/24 07:25:44;;;;;;;15.17;7.13;;;5.40;99.90;;;;;;4984696;28;20041;-83
2022/01/24 07:28:10;;;;;;;15.07;7.68;;;5.40;99.90;;;;;;4986730;28;20413;-83
2022/01/24 07:30:35;;;;;;;13.83;7.37;;;5.40;99.90;;;;;;4997093;28;20091;-83
2022/01/24 07:33:01;;;;;;;19.30;8.10;;;5.40;99.90;;;;;;4991659;28;20050;-83
2022/01/24 07:35:27;;;;;;;18.57;8.67;;;5.30;99.90;;;;;;4987528;28;20041;-83
2022/01/24 07:37:52;;;;;;;16.30;8.40;;;5.40;99.90;;;;;;5005040;28;20042;-83
2022/01/24 07:40:18;;;;;;;15.33;8.07;;;5.30;99.90;;;;;;4995606;28;20041;-82
2022/01/24 07:42:54;;;;;;;16.03;8.00;;;5.40;99.90;;;;;;4974163;28;20061;-83
2022/01/24 07:45:22;;;;;;;14.73;7.97;;;5.40;99.90;;;;;;4988693;28;20105;-83
2022/01/24 07:47:49;;;;;;;18.33;8.55;;;5.40;99.90;;;;;;4985041;28;20046;-82
2022/01/24 07:50:15;;;;;;;;;;;5.40;99.90;;;;;;4973958;28;20077;-83
2022/01/24 07:52:41;;;;;;;17.65;8.63;;;5.40;99.90;;;;;;4991130;28;20001;-84
2022/01/24 07:55:07;;;;;;;19.13;8.90;;;5.30;99.90;;;;;;4978260;28;20061;-82
2022/01/24 07:57:33;;;;;;;17.33;9.43;;;5.40;99.90;;;;;;4984712;28;20508;-82
2022/01/24 07:59:58;;;;;;;17.50;9.27;;;5.40;99.90;;;;;;5005713;28;20066;-83
2022/01/24 08:02:24;;;;;;;18.97;9.63;;;5.40;99.90;;;;;;4972046;28;20050;-83
2022/01/24 08:04:49;;;;;;;18.53;9.03;;;5.40;99.90;;;;;;4992969;28;20096;-83
2022/01/24 08:07:15;;;;;;;16.43;9.37;;;5.40;99.90;;;;;;4996339;28;20559;-83
2022/01/24 08:09:40;;;;;;;17.90;9.30;;;5.40;99.90;;;;;;4989907;28;20513;-84
2022/01/24 08:12:09;;;;;;;19.43;9.80;;;5.40;99.90;;;;;;4993353;28;20523;-83
2022/01/24 08:14:35;;;;;;;18.77;9.25;;;5.40;99.90;;;;;;4989055;28;20044;-83
2022/01/24 08:17:02;;;;;;;19.90;9.67;;;5.40;99.90;;;;;;5000309;28;20132;-83
2022/01/24 08:19:28;;;;;;;22.40;10.52;;;5.40;99.90;;;;;;4987058;28;20201;-84
2022/01/24 08:21:56;;;;;;;20.67;10.30;;;5.40;99.90;;;;;;4988704;28;20158;-83
2022/01/24 08:24:22;;;;;;;19.63;10.32;;;5.40;99.90;;;;;;4989787;28;20368;-83
2022/01/24 08:26:48;;;;;;;21.42;10.38;;;5.40;99.90;;;;;;4989330;28;20050;-82
2022/01/24 08:29:14;;;;;;;21.33;10.40;;;5.40;99.90;;;;;;4985130;28;20497;-83
2022/01/24 08:31:39;;;;;;;20.50;10.23;;;5.40;99.90;;;;;;4990325;28;20169;-84
2022/01/24 08:34:05;;;;;;;20.00;10.60;;;5.40;99.90;;;;;;4994325;28;20038;-83
2022/01/24 08:36:30;;;;;;;19.53;10.13;;;5.40;99.90;;;;;;4984678;28;20175;-84
2022/01/24 08:39:02;;;;;;;20.30;11.30;;;5.40;99.90;;;;;;4989668;28;20062;-84
2022/01/24 08:41:39;;;;;;;21.42;10.55;;;5.40;99.90;;;;;;4990828;28;20050;-83
2022/01/24 08:46:47;;;;;;;21.75;10.60;;;5.40;99.90;;;;;;4983522;28;19918;-83
2022/01/24 08:49:13;;;;;;;;;;;5.50;99.90;;;;;;4991635;28;20401;-82
2022/01/24 08:51:39;;;;;;;20.70;10.15;;;5.50;99.90;;;;;;4983049;28;19918;-83
2022/01/24 08:54:05;;;;;;;21.57;10.67;;;5.40;99.90;;;;;;4989513;28;20646;-81
2022/01/24 08:56:31;;;;;;;18.73;10.57;;;5.50;99.90;;;;;;4982643;28;20096;-84
2022/01/24 08:58:57;;;;;;;23.17;11.60;;;5.50;99.90;;;;;;4988729;28;20038;-84
2022/01/24 09:01:22;;;;;;;26.37;12.90;;;5.50;99.90;;;;;;4991870;28;20493;-83
2022/01/24 09:03:48;;;;;;;22.83;10.87;;;5.50;99.90;;;;;;4976195;28;20053;-83
2022/01/24 09:06:17;;;;;;;21.57;10.97;;;5.50;99.90;;;;;;5001654;23;20061;-70
2022/01/24 09:08:43;;;;;;;20.63;11.55;;;5.50;99.90;;;;;;4975613;28;20489;-68
2022/01/24 09:11:09;;;;;;;21.42;11.48;;;5.50;99.90;;;;;;4978548;28;20042;-67
2022/01/24 09:13:35;;;;;;;20.95;11.85;;;5.50;99.90;;;;;;4984885;28;20094;-68
2022/01/24 09:16:01;;;;;;;21.97;11.17;;;5.50;99.90;;;;;;4966784;28;20547;-68
2022/01/24 09:18:28;;;;;;;21.05;10.88;;;5.60;99.90;;;;;;4965569;28;20126;-67
2022/01/24 09:20:53;;;;;;;20.48;11.32;;;5.50;99.90;;;;;;4973193;28;20472;-68
2022/01/24 09:23:20;;;;;;;22.03;11.57;;;5.60;99.90;;;;;;4956927;28;20043;-65
2022/01/24 09:25:46;;;;;;;22.55;10.80;;;5.60;99.90;;;;;;4972968;28;20046;-67
2022/01/24 09:28:12;;;;;;;22.97;11.90;;;5.60;99.90;;;;;;4972660;28;20540;-67
2022/01/24 09:30:37;;;;;;;23.23;12.33;;;5.60;99.90;;;;;;4965868;28;20045;-67
2022/01/24 09:33:03;;;;;;;23.57;11.37;;;5.60;99.90;;;;;;4971380;28;20035;-67
2022/01/24 09:35:29;;;;;;;22.90;12.40;;;5.60;99.90;;;;;;4952857;28;20054;-67
2022/01/24 09:37:55;;;;;;;20.00;11.77;;;5.60;99.90;;;;;;4970329;28;20419;-67
2022/01/24 09:40:22;;;;;;;23.77;11.70;;;5.60;99.90;;;;;;4967664;28;20126;-67
2022/01/24 09:42:48;;;;;;;24.23;12.27;;;5.60;99.90;;;;;;4974116;28;20046;-67
2022/01/24 09:45:16;;;;;;;21.48;10.82;;;5.60;99.90;;;;;;4973874;28;20467;-68
2022/01/24 09:47:42;;;;;;;19.58;11.10;;;5.60;99.90;;;;;;4951778;28;20456;-68
2022/01/24 09:50:10;;;;;;;20.52;11.65;;;5.60;99.90;;;;;;4946350;28;20495;-68
2022/01/24 09:52:39;;;;;;;22.15;11.68;;;5.60;99.90;;;;;;4977971;28;20260;-68
2022/01/24 09:55:06;;;;;;;22.83;11.75;;;5.70;99.90;;;;;;4986061;28;20153;-68
2022/01/24 09:57:31;;;;;;;;;;;5.70;99.90;;;;;;4972607;28;20134;-70
2022/01/24 09:59:57;;;;;;;22.30;10.43;;;5.70;99.90;;;;;;4959135;28;20015;-71
2022/01/24 10:02:26;;;;;;;20.47;10.77;;;5.70;99.90;;;;;;4958756;28;20050;-68
2022/01/24 10:05:10;;;;;;;23.10;11.95;;;5.70;99.90;;;;;;4980822;28;20038;-68
2022/01/24 10:07:38;;;;;;;22.05;11.38;;;5.70;99.90;;;;;;4973474;28;20054;-75
2022/01/24 10:10:04;;;;;;;22.02;11.68;;;5.70;99.90;;;;;;4961473;28;20073;-69
2022/01/24 10:17:54;;;;;;;24.15;11.20;;;5.70;99.90;;;;;;4974173;28;20074;-67
2022/01/24 10:20:29;;;;;;;25.07;12.63;;;5.80;99.90;;;;;;4950232;28;20404;-67
2022/01/24 10:23:06;;;;;;;22.33;11.40;;;5.80;99.90;;;;;;4971005;28;20638;-67
2022/01/24 10:25:32;;;;;;;;;;;5.80;99.90;;;;;;4969518;28;20626;-67
2022/01/24 10:28:03;;;;;;;28.27;12.73;;;5.70;99.90;;;;;;4954199;28;19917;-67
2022/01/24 10:30:30;;;;;;;27.48;13.65;;;5.70;99.90;;;;;;4968619;28;20431;-67
2022/01/24 10:32:56;;;;;;;25.95;12.73;;;5.80;99.90;;;;;;4956283;28;20049;-67
2022/01/24 10:35:37;;;;;;;;;;;5.80;99.90;;;;;;4983776;28;20092;-67
2022/01/24 10:38:25;;;;;;;23.65;12.52;;;5.80;99.90;;;;;;4980178;28;19918;-67
2022/01/24 10:41:10;;;;;;;;;;;5.80;99.90;;;;;;4967738;28;20125;-67
2022/01/24 10:43:40;;;;;;;26.35;12.35;;;5.80;99.90;;;;;;4977007;28;20379;-68
2022/01/24 10:46:07;;;;;;;29.63;14.55;;;5.80;99.90;;;;;;4962553;28;20069;-68
2022/01/24 10:48:42;;;;;;;34.13;16.55;;;5.80;99.90;;;;;;4957893;28;20343;-68
2022/01/24 10:51:15;;;;;;;26.08;13.63;;;5.80;99.90;;;;;;4962017;28;20556;-68
2022/01/24 10:53:43;;;;;;;31.67;14.65;;;5.80;99.90;;;;;;4968451;28;20770;-67
2022/01/24 10:56:30;;;;;;;34.58;16.83;;;5.80;99.90;;;;;;4950860;28;20488;-68
2022/01/24 10:59:17;;;;;;;33.05;14.90;;;5.80;99.90;;;;;;4979662;28;20042;-68
2022/01/24 11:02:01;;;;;;;31.45;14.57;;;5.80;99.90;;;;;;4976232;28;20157;-68
2022/01/24 11:04:27;;;;;;;31.23;16.00;;;5.80;99.90;;;;;;4979611;28;20536;-68
2022/01/24 11:06:59;;;;;;;30.17;14.50;;;5.90;99.90;;;;;;4942494;28;20050;-68
2022/01/24 11:09:37;;;;;;;27.70;13.73;;;5.80;99.90;;;;;;4958139;28;20049;-67
2022/01/24 11:12:11;;;;;;;29.00;14.85;;;5.90;99.90;;;;;;4963780;28;20101;-67
2022/01/24 11:14:45;;;;;;;27.17;13.38;;;5.80;99.90;;;;;;4974713;28;21742;-70
2022/01/24 11:17:14;;;;;;;27.48;13.23;;;5.90;99.90;;;;;;4976225;28;20034;-68
2022/01/24 11:19:46;;;;;;;30.17;15.25;;;5.90;99.90;;;;;;4969500;28;20505;-69
2022/01/24 11:22:20;;;;;;;27.10;13.18;;;5.90;99.90;;;;;;4973937;28;20066;-66
2022/01/24 11:24:53;;;;;;;28.27;13.35;;;5.90;99.90;;;;;;4976487;28;20072;-66
2022/01/24 11:27:20;;;;;;;26.75;14.13;;;5.90;99.90;;;;;;4966599;28;20050;-69
2022/01/24 11:29:46;;;;;;;28.63;13.38;;;5.90;99.90;;;;;;4977679;28;20077;-69
2022/01/24 11:32:19;;;;;;;25.00;12.82;;;5.90;99.90;;;;;;4966614;28;20074;-69
2022/01/24 11:34:50;;;;;;;26.30;13.15;;;5.90;99.90;;;;;;4974956;28;20364;-69
2022/01/24 11:37:37;;;;;;;29.35;14.02;;;5.90;99.90;;;;;;4954352;28;20432;-69
2022/01/24 11:40:16;;;;;;;26.58;13.38;;;5.90;99.90;;;;;;4975193;28;20246;-69
2022/01/24 11:42:45;;;;;;;31.38;14.50;;;5.90;99.90;;;;;;4971786;28;20250;-70
2022/01/24 11:45:14;;;;;;;30.05;13.93;;;6.00;99.90;;;;;;4955615;28;20101;-69
2022/01/24 11:47:42;;;;;;;30.83;15.35;;;5.90;99.90;;;;;;4976040;28;20395;-70
2022/01/24 11:50:36;;;;;;;28.92;14.95;;;6.00;99.90;;;;;;4973152;28;20461;-69
2022/01/24 11:53:22;;;;;;;25.90;14.30;;;5.90;99.90;;;;;;4969506;28;20610;-71
2022/01/24 11:55:48;;;;;;;32.05;15.95;;;6.00;99.90;;;;;;4967678;28;20408;-70
2022/01/24 11:58:32;;;;;;;33.15;14.20;;;6.00;99.90;;;;;;4965830;28;21479;-69
2022/01/24 12:01:03;;;;;;;31.88;14.63;;;6.00;99.90;;;;;;4954110;28;20058;-69
2022/01/24 12:03:30;;;;;;;31.10;13.73;;;6.00;99.90;;;;;;4953252;28;21220;-71
2022/01/24 12:05:57;;;;;;;;;;;6.00;99.90;;;;;;4960210;28;20046;-67
2022/01/24 12:08:44;;;;;;;27.80;13.10;;;6.00;99.90;;;;;;4977019;28;20381;-67
2022/01/24 12:11:19;;;;;;;26.25;11.98;;;6.00;99.90;;;;;;4974610;28;20042;-67
2022/01/24 12:13:53;;;;;;;27.70;13.32;;;6.00;99.90;;;;;;4955489;28;20038;-67
2022/01/24 12:16:20;;;;;;;25.92;13.52;;;6.00;99.90;;;;;;4955870;28;20475;-67
2022/01/24 12:18:49;;;;;;;27.58;13.63;;;6.00;99.90;;;;;;4968845;28;20046;-67
2022/01/24 12:21:21;;;;;;;30.27;14.80;;;6.00;99.90;;;;;;4971131;28;20109;-67
2022/01/24 12:23:56;;;;;;;24.85;12.23;;;6.00;99.90;;;;;;4967794;28;20455;-67
2022/01/24 12:26:29;;;;;;;26.38;13.15;;;6.00;99.90;;;;;;4975306;28;20081;-67
2022/01/24 12:29:01;;;;;;;28.90;13.85;;;6.00;99.90;;;;;;4947792;28;20046;-66
2022/01/24 12:31:35;;;;;;;25.38;13.05;;;6.00;99.90;;;;;;4949632;28;20105;-67
2022/01/24 12:34:13;;;;;;;26.98;12.88;;;6.10;99.90;;;;;;4971343;28;20081;-66
2022/01/24 12:36:39;;;;;;;24.52;12.18;;;6.00;99.90;;;;;;4975691;28;20455;-66
2022/01/24 12:39:27;;;;;;;27.27;13.53;;;6.00;99.90;;;;;;4969106;28;20523;-66
2022/01/24 12:41:59;;;;;;;25.20;11.98;;;6.00;99.90;;;;;;4974506;28;20058;-65
2022/01/24 12:47:04;;;;;;;27.48;13.63;;;6.00;99.90;;;;;;4968425;28;20527;-66
2022/01/24 12:49:31;;;;;;;26.08;13.10;;;6.00;99.90;;;;;;4971562;28;20050;-66
2022/01/24 12:52:02;;;;;;;28.38;13.88;;;6.00;99.90;;;;;;4965382;28;20042;-66
2022/01/24 12:54:30;;;;;;;28.23;13.85;;;6.10;99.90;;;;;;4966264;28;20081;-66
2022/01/24 12:57:00;;;;;;;24.33;12.88;;;6.10;99.90;;;;;;4974314;28;20042;-66
2022/01/24 12:59:26;;;;;;;24.42;13.07;;;6.10;99.90;;;;;;4961108;28;20047;-67
2022/01/24 13:01:55;;;;;;;26.80;12.10;;;6.10;99.90;;;;;;4968144;28;20060;-67
2022/01/24 13:04:31;;;;;;;30.50;12.93;;;6.10;99.90;;;;;;4969240;28;20541;-71
2022/01/24 13:06:58;;;;;;;27.13;12.00;;;6.10;99.90;;;;;;4954248;28;20088;-69
2022/01/24 13:09:26;;;;;;;26.77;13.20;;;6.00;99.90;;;;;;4957178;28;20057;-69
2022/01/24 13:12:00;;;;;;;26.75;13.07;;;6.10;99.90;;;;;;4969239;28;20384;-66
2022/01/24 13:14:41;;;;;;;29.13;14.43;;;6.00;99.90;;;;;;4955566;28;20472;-66
2022/01/24 13:25:14;;;;;;;31.27;13.73;;;6.10;99.90;;;;;;4966201;28;20109;-66
2022/01/24 13:27:49;;;;;;;27.75;12.18;;;6.00;99.90;;;;;;4961731;28;20882;-66
2022/01/24 13:30:33;;;;;;;33.55;14.88;;;6.00;99.90;;;;;;4968110;28;20042;-66
2022/01/24 13:33:04;;;;;;;29.63;14.48;;;6.00;99.90;;;;;;4973979;28;20153;-67
2022/01/24 13:35:33;;;;;;;28.63;13.25;;;6.00;99.90;;;;;;4974061;28;20043;-66
2022/01/24 13:38:02;;;;;;;29.50;13.43;;;6.00;99.90;;;;;;4957228;28;20411;-66
2022/01/24 13:40:58;;;;;;;25.35;12.73;;;6.00;99.90;;;;;;4978181;28;20112;-66
2022/01/24 13:43:38;;;;;;;26.52;12.63;;;6.00;99.90;;;;;;4967668;28;20433;-66
2022/01/24 13:46:07;;;;;;;29.60;14.07;;;6.00;99.90;;;;;;4976139;28;20400;-66
2022/01/24 13:48:41;;;;;;;26.73;13.25;;;6.00;99.90;;;;;;4973767;28;20045;-66
2022/01/24 13:51:07;;;;;;;27.95;14.02;;;5.90;99.90;;;;;;4968150;28;20039;-66
2022/01/24 13:53:36;;;;;;;;;;;6.00;99.90;;;;;;4977690;28;20089;-67
2022/01/24 13:56:35;;;;;;;27.05;12.95;;;5.90;99.90;;;;;;4956923;28;19925;-67
2022/01/24 13:59:11;;;;;;;26.88;12.90;;;5.90;99.90;;;;;;4974214;28;20073;-67
2022/01/24 14:01:48;;;;;;;28.40;14.38;;;5.90;99.90;;;;;;4961287;28;20479;-67
2022/01/24 14:04:13;;;;;;;33.55;14.02;;;5.90;99.90;;;;;;4972629;28;20118;-67
2022/01/24 14:06:39;;;;;;;27.57;13.07;;;5.80;99.90;;;;;;4970778;28;20130;-67
2022/01/24 14:09:15;;;;;;;29.83;14.53;;;5.80;99.90;;;;;;4974890;28;20559;-66
2022/01/24 14:11:47;;;;;;;27.45;13.52;;;5.80;99.90;;;;;;4974676;28;20125;-67
2022/01/24 14:14:17;;;;;;;28.77;13.02;;;5.80;99.90;;;;;;4979264;28;20433;-66
2022/01/24 14:17:02;;;;;;;29.60;13.20;;;5.80;99.90;;;;;;4978985;28;20191;-66
2022/01/24 14:19:29;;;;;;;30.55;14.05;;;5.80;99.90;;;;;;4976233;28;20062;-66
2022/01/24 14:22:08;;;;;;;29.60;14.05;;;5.80;99.90;;;;;;4978496;28;20038;-67
2022/01/24 14:24:50;;;;;;;33.13;14.13;;;5.80;99.90;;;;;;4954682;28;20525;-66
2022/01/24 14:27:37;;;;;;;31.73;14.40;;;5.80;99.90;;;;;;4975645;28;20054;-66
2022/01/24 14:30:20;;;;;;;29.00;12.88;;;5.80;99.90;;;;;;4982117;28;20603;-66
2022/01/24 14:33:16;;;;;;;28.98;13.02;;;5.80;99.90;;;;;;4968358;28;20081;-67
2022/01/24 14:36:00;;;;;;;29.48;13.52;;;5.80;99.90;;;;;;4960046;28;20042;-67
2022/01/24 14:38:29;;;;;;;31.13;14.18;;;5.80;99.90;;;;;;4974189;28;20095;-67
2022/01/24 14:40:58;;;;;;;24.55;12.82;;;5.70;99.90;;;;;;4971809;28;20128;-67
2022/01/24 14:46:20;;;;;;;29.75;13.95;;;5.70;99.90;;;;;;4977227;28;20046;-67
2022/01/24 14:48:49;;;;;;;26.73;12.80;;;5.70;99.90;;;;;;4972069;28;20080;-66
2022/01/24 14:51:17;;;;;;;27.50;13.18;;;5.70;99.90;;;;;;4972603;28;20043;-69
2022/01/24 14:53:44;;;;;;;27.55;13.85;;;5.70;99.90;;;;;;4973050;28;20489;-67
2022/01/24 14:56:12;;;;;;;32.88;14.57;;;5.70;99.90;;;;;;4951862;28;20051;-67
2022/01/24 14:58:38;;;;;;;29.38;14.10;;;5.70;99.90;;;;;;4973255;28;20463;-67